createdAt,value
2019-04-25T00:00:47.993Z,97.70
2019-04-25T00:02:51.745Z,97.80
2019-04-25T00:04:55.658Z,97.80
2019-04-25T00:06:59.874Z,97.80
2019-04-25T00:09:06.813Z,97.80
2019-04-25T00:11:11.699Z,97.90
2019-04-25T00:13:15.993Z,98.00
2019-04-25T00:15:19.725Z,98.00
2019-04-25T00:17:23.383Z,98.10
2019-04-25T00:19:26.986Z,98.10
2019-04-25T00:21:34.929Z,98.20
2019-04-25T00:23:41.838Z,98.30
2019-04-25T00:25:51.215Z,98.30
2019-04-25T00:27:55.409Z,98.40
2019-04-25T00:29:59.206Z,98.40
2019-04-25T00:32:03.321Z,98.50
2019-04-25T00:34:08.717Z,98.50
2019-04-25T00:36:12.445Z,98.60
2019-04-25T00:38:16.572Z,98.70
2019-04-25T00:40:21.895Z,98.80
2019-04-25T00:42:25.789Z,98.80
2019-04-25T00:44:29.822Z,98.90
2019-04-25T00:46:33.551Z,98.90
2019-04-25T00:48:37.202Z,98.90
2019-04-25T00:50:42.374Z,99.10
2019-04-25T00:52:46.601Z,99.20
2019-04-25T00:54:50.833Z,99.20
2019-04-25T00:56:55.766Z,99.30
2019-04-25T00:59:17.973Z,99.30
2019-04-25T01:01:26.015Z,99.30
2019-04-25T01:03:34.059Z,99.30
2019-04-25T01:05:37.789Z,99.40
2019-04-25T01:07:42.225Z,99.50
2019-04-25T01:09:46.274Z,99.50
2019-04-25T01:11:50.053Z,99.50
2019-04-25T01:13:54.399Z,99.50
2019-04-25T01:15:58.146Z,99.60
2019-04-25T01:18:01.879Z,99.60
2019-04-25T01:20:08.510Z,99.70
2019-04-25T01:22:14.375Z,99.70
2019-04-25T01:24:18.811Z,99.80
2019-04-25T01:26:23.929Z,99.70
2019-04-25T01:28:28.393Z,99.80
2019-04-25T01:30:33.910Z,99.80
2019-04-25T01:32:39.179Z,99.80
2019-04-25T01:34:44.489Z,99.80
2019-04-25T01:36:54.743Z,99.80
2019-04-25T01:39:11.742Z,99.80
2019-04-25T01:41:29.066Z,99.90
2019-04-25T01:43:48.343Z,99.90
2019-04-25T01:45:53.704Z,99.90
2019-04-25T01:47:58.295Z,99.90
2019-04-25T01:50:03.822Z,99.90
2019-04-25T01:52:07.910Z,99.90
2019-04-25T01:54:12.047Z,99.90
2019-04-25T01:56:17.576Z,99.90
2019-04-25T01:58:21.371Z,99.90
2019-04-25T02:00:35.594Z,99.90
2019-04-25T02:02:39.941Z,99.90
2019-04-25T02:04:44.353Z,99.90
2019-04-25T02:06:48.242Z,99.90
2019-04-25T02:08:52.070Z,99.90
2019-04-25T02:11:10.133Z,99.90
2019-04-25T02:13:20.981Z,99.90
2019-04-25T02:15:26.699Z,99.90
2019-04-25T02:17:30.451Z,99.90
2019-04-25T02:19:35.800Z,99.90
2019-04-25T02:21:39.674Z,99.90
2019-04-25T02:23:44.265Z,99.90
2019-04-25T02:25:48.037Z,99.90
2019-04-25T02:27:52.787Z,99.90
2019-04-25T02:29:57.270Z,99.90
2019-04-25T02:32:07.887Z,99.90
2019-04-25T02:34:08.610Z,99.90
2019-04-25T02:36:14.483Z,99.90
2019-04-25T02:38:18.005Z,99.90
2019-04-25T02:40:23.784Z,99.90
2019-04-25T02:42:27.790Z,99.90
2019-04-25T02:44:34.490Z,99.90
2019-04-25T02:46:49.272Z,99.90
2019-04-25T02:48:56.202Z,99.90
2019-04-25T02:51:01.590Z,99.90
2019-04-25T02:53:25.001Z,99.90
2019-04-25T02:55:31.848Z,99.90
2019-04-25T02:57:34.640Z,99.90
2019-04-25T02:59:38.631Z,99.90
2019-04-25T03:01:44.517Z,99.90
2019-04-25T03:03:47.918Z,99.90
2019-04-25T03:05:51.641Z,99.90
2019-04-25T03:07:57.709Z,99.90
2019-04-25T03:10:01.992Z,99.90
2019-04-25T03:12:07.677Z,99.90
2019-04-25T03:14:11.275Z,99.90
2019-04-25T03:16:15.346Z,99.90
2019-04-25T03:18:20.699Z,99.90
2019-04-25T03:20:29.031Z,99.90
2019-04-25T03:22:34.581Z,99.90
2019-04-25T03:24:38.547Z,99.90
2019-04-25T03:26:44.210Z,99.90
2019-04-25T03:28:47.717Z,99.90
2019-04-25T03:30:51.438Z,99.90
2019-04-25T03:32:56.215Z,99.90
2019-04-25T03:35:01.215Z,99.90
2019-04-25T03:37:05.631Z,99.90
2019-04-25T03:39:10.153Z,99.90
2019-04-25T03:41:14.787Z,99.90
2019-04-25T03:43:18.504Z,99.90
2019-04-25T03:45:23.614Z,99.90
2019-04-25T03:47:27.393Z,99.90
2019-04-25T03:49:31.123Z,99.90
2019-04-25T03:51:34.845Z,99.90
2019-04-25T03:53:38.504Z,99.90
2019-04-25T03:55:44.365Z,99.90
2019-04-25T03:57:48.349Z,99.90
2019-04-25T03:59:53.512Z,99.90
2019-04-25T04:01:57.434Z,99.90
2019-04-25T04:04:01.229Z,99.90
2019-04-25T04:06:07.308Z,99.90
2019-04-25T04:08:11.813Z,99.90
2019-04-25T04:10:15.691Z,99.90
2019-04-25T04:12:19.482Z,99.90
2019-04-25T04:14:23.943Z,99.90
2019-04-25T04:16:29.478Z,99.60
2019-04-25T04:18:34.774Z,99.10
2019-04-25T04:20:53.484Z,98.60
2019-04-25T04:22:59.081Z,97.60
2019-04-25T04:25:03.845Z,96.30
2019-04-25T04:27:10.734Z,95.70
2019-04-25T04:29:15.271Z,95.10
2019-04-25T04:31:19.226Z,94.40
2019-04-25T04:33:31.917Z,93.70
2019-04-25T04:35:29.901Z,93.00
2019-04-25T04:37:33.954Z,92.50
2019-04-25T04:39:37.817Z,91.90
2019-04-25T04:41:41.777Z,91.30
2019-04-25T04:43:45.673Z,90.40
2019-04-25T04:45:49.316Z,90.10
2019-04-25T04:47:54.089Z,88.90
2019-04-25T04:49:58.097Z,87.90
2019-04-25T04:52:01.819Z,87.20
2019-04-25T04:54:05.541Z,86.80
2019-04-25T04:56:09.660Z,86.20
2019-04-25T04:58:14.988Z,85.20
2019-04-25T05:00:19.086Z,84.00
2019-04-25T05:02:25.110Z,82.90
2019-04-25T05:04:46.834Z,80.60
2019-04-25T05:07:01.129Z,80.00
2019-04-25T05:09:16.406Z,79.30
2019-04-25T05:11:20.125Z,77.90
2019-04-25T05:13:24.260Z,77.20
2019-04-25T05:15:28.410Z,75.90
2019-04-25T05:17:32.061Z,76.40
2019-04-25T05:19:35.717Z,75.50
2019-04-25T05:21:39.661Z,74.80
2019-04-25T05:23:44.302Z,73.70
2019-04-25T05:25:48.470Z,73.70
2019-04-25T05:28:01.975Z,72.50
2019-04-25T05:29:57.654Z,72.00
2019-04-25T05:32:01.538Z,70.90
2019-04-25T05:34:05.266Z,70.80
2019-04-25T05:36:08.933Z,69.00
2019-04-25T05:38:14.203Z,67.80
2019-04-25T05:40:18.305Z,66.80
2019-04-25T05:42:24.820Z,65.80
2019-04-25T05:44:29.005Z,65.10
2019-04-25T05:46:34.148Z,65.30
2019-04-25T05:48:38.326Z,63.10
2019-04-25T05:50:43.683Z,62.00
2019-04-25T05:52:47.878Z,59.80
2019-04-25T05:54:51.648Z,59.50
2019-04-25T05:56:55.550Z,59.50
2019-04-25T05:58:59.341Z,58.80
2019-04-25T06:01:03.359Z,58.50
2019-04-25T06:03:07.019Z,57.60
2019-04-25T06:05:11.085Z,55.50
2019-04-25T06:07:15.041Z,54.00
2019-04-25T06:09:24.042Z,53.80
2019-04-25T06:11:30.743Z,54.30
2019-04-25T06:13:43.281Z,54.30
2019-04-25T06:15:53.263Z,55.20
2019-04-25T06:17:59.094Z,55.00
2019-04-25T06:20:06.190Z,54.60
2019-04-25T06:22:13.044Z,53.80
2019-04-25T06:24:21.082Z,52.80
2019-04-25T06:26:34.758Z,51.30
2019-04-25T06:28:34.526Z,50.20
2019-04-25T06:30:37.625Z,50.00
2019-04-25T06:32:41.350Z,49.30
2019-04-25T06:34:45.103Z,49.60
2019-04-25T06:36:48.693Z,49.70
2019-04-25T06:38:54.089Z,48.70
2019-04-25T06:40:57.809Z,49.00
2019-04-25T06:43:03.382Z,48.40
2019-04-25T06:45:15.725Z,48.90
2019-04-25T06:47:37.273Z,48.90
2019-04-25T06:49:43.210Z,48.30
2019-04-25T06:51:54.645Z,47.50
2019-04-25T06:53:58.325Z,48.30
2019-04-25T06:56:03.509Z,47.80
2019-04-25T06:58:12.080Z,47.40
2019-04-25T07:00:14.838Z,46.80
2019-04-25T07:02:18.963Z,45.90
2019-04-25T07:04:25.122Z,45.10
2019-04-25T07:06:28.042Z,44.90
2019-04-25T07:08:31.797Z,45.60
2019-04-25T07:10:36.347Z,45.60
2019-04-25T07:12:40.025Z,46.10
2019-04-25T07:14:44.170Z,45.00
2019-04-25T07:16:47.893Z,45.80
2019-04-25T07:18:53.331Z,45.10
2019-04-25T07:20:57.029Z,44.50
2019-04-25T07:23:01.081Z,44.80
2019-04-25T07:25:08.186Z,45.00
2019-04-25T07:27:19.115Z,45.50
2019-04-25T07:29:40.698Z,46.00
2019-04-25T07:31:48.507Z,46.60
2019-04-25T07:34:03.268Z,46.70
2019-04-25T07:36:07.380Z,47.40
2019-04-25T07:38:10.946Z,48.30
2019-04-25T07:40:16.706Z,48.00
2019-04-25T07:42:21.423Z,48.00
2019-04-25T07:44:38.662Z,48.30
2019-04-25T07:46:30.661Z,47.90
2019-04-25T07:48:37.166Z,47.30
2019-04-25T07:50:39.617Z,47.00
2019-04-25T07:52:44.277Z,46.00
2019-04-25T07:54:50.027Z,46.10
2019-04-25T07:56:55.092Z,45.70
2019-04-25T07:58:58.994Z,45.20
2019-04-25T08:01:03.786Z,45.30
2019-04-25T08:03:07.579Z,44.50
2019-04-25T08:05:14.364Z,43.90
2019-04-25T08:07:18.625Z,43.60
2019-04-25T08:09:24.312Z,43.80
2019-04-25T08:11:28.114Z,43.60
2019-04-25T08:13:34.250Z,43.30
2019-04-25T08:15:43.767Z,42.80
2019-04-25T08:17:58.277Z,43.40
2019-04-25T08:20:03.976Z,43.10
2019-04-25T08:22:07.831Z,43.00
2019-04-25T08:24:11.721Z,42.20
2019-04-25T08:26:15.747Z,43.70
2019-04-25T08:28:20.331Z,43.00
2019-04-25T08:30:24.124Z,42.70
2019-04-25T08:32:27.850Z,42.10
2019-04-25T08:34:32.849Z,41.90
2019-04-25T08:36:38.545Z,41.00
2019-04-25T08:38:44.059Z,40.90
2019-04-25T08:40:47.895Z,40.60
2019-04-25T08:42:51.619Z,40.70
2019-04-25T08:44:55.389Z,40.90
2019-04-25T08:46:59.038Z,40.80
2019-04-25T08:49:06.133Z,41.00
2019-04-25T08:51:11.273Z,40.80
2019-04-25T08:53:15.417Z,40.30
2019-04-25T08:55:38.231Z,39.70
2019-04-25T08:57:55.768Z,39.80
2019-04-25T09:00:01.132Z,39.70
2019-04-25T09:02:06.543Z,38.80
2019-04-25T09:04:22.211Z,38.30
2019-04-25T09:06:26.362Z,37.80
2019-04-25T09:08:30.237Z,37.30
2019-04-25T09:10:36.846Z,36.90
2019-04-25T09:12:40.216Z,36.60
2019-04-25T09:14:46.296Z,36.60
2019-04-25T09:16:49.246Z,37.60
2019-04-25T09:18:53.963Z,38.20
2019-04-25T09:20:58.555Z,38.50
2019-04-25T09:23:04.903Z,38.80
2019-04-25T09:25:09.150Z,39.60
2019-04-25T09:27:13.492Z,39.20
2019-04-25T09:29:19.778Z,40.10
2019-04-25T09:31:23.602Z,39.10
2019-04-25T09:33:27.451Z,39.00
2019-04-25T09:35:33.306Z,38.70
2019-04-25T09:37:36.982Z,38.60
2019-04-25T09:39:51.773Z,39.00
2019-04-25T09:41:55.566Z,39.40
2019-04-25T09:44:00.922Z,39.00
2019-04-25T09:46:09.118Z,39.10
2019-04-25T09:48:17.568Z,39.00
2019-04-25T09:50:38.659Z,39.20
2019-04-25T09:52:44.380Z,39.50
2019-04-25T09:54:50.122Z,39.60
2019-04-25T09:56:57.361Z,39.30
2019-04-25T09:59:05.673Z,39.40
2019-04-25T10:01:15.899Z,39.40
2019-04-25T10:03:19.554Z,39.40
2019-04-25T10:05:23.947Z,39.60
2019-04-25T10:07:27.641Z,39.60
2019-04-25T10:09:31.436Z,39.70
2019-04-25T10:11:35.093Z,39.80
2019-04-25T10:13:40.003Z,40.00
2019-04-25T10:15:50.396Z,39.50
2019-04-25T10:17:54.511Z,39.70
2019-04-25T10:19:58.598Z,39.40
2019-04-25T10:22:03.397Z,39.30
2019-04-25T10:24:07.514Z,40.00
2019-04-25T10:26:13.188Z,40.90
2019-04-25T10:28:16.909Z,40.40
2019-04-25T10:30:23.561Z,40.50
2019-04-25T10:32:27.097Z,40.60
2019-04-25T10:34:30.924Z,40.60
2019-04-25T10:36:34.641Z,39.40
2019-04-25T10:38:40.259Z,39.00
2019-04-25T10:40:46.494Z,39.10
2019-04-25T10:42:51.015Z,39.30
2019-04-25T10:44:56.629Z,39.50
2019-04-25T10:47:00.464Z,40.60
2019-04-25T10:49:04.435Z,40.30
2019-04-25T10:51:08.896Z,40.40
2019-04-25T10:53:12.713Z,40.30
2019-04-25T10:55:16.394Z,40.60
2019-04-25T10:57:20.401Z,40.50
2019-04-25T10:59:24.357Z,40.80
2019-04-25T11:01:29.022Z,41.60
2019-04-25T11:03:51.714Z,41.70
2019-04-25T11:05:56.066Z,41.70
2019-04-25T11:07:59.878Z,41.50
2019-04-25T11:10:04.570Z,41.70
2019-04-25T11:12:12.999Z,41.50
2019-04-25T11:14:16.763Z,40.70
2019-04-25T11:16:20.890Z,40.80
2019-04-25T11:18:24.629Z,41.00
2019-04-25T11:20:30.558Z,40.90
2019-04-25T11:22:34.703Z,41.10
2019-04-25T11:24:39.256Z,41.30
2019-04-25T11:26:47.200Z,41.20
2019-04-25T11:28:48.837Z,41.70
2019-04-25T11:30:54.497Z,41.70
2019-04-25T11:32:59.365Z,41.90
2019-04-25T11:35:03.603Z,41.10
2019-04-25T11:37:08.845Z,40.30
2019-04-25T11:39:30.810Z,40.50
2019-04-25T11:41:34.601Z,41.50
2019-04-25T11:43:38.330Z,42.00
2019-04-25T11:45:42.325Z,43.40
2019-04-25T11:47:47.131Z,44.00
2019-04-25T11:49:52.414Z,43.70
2019-04-25T11:51:56.342Z,43.90
2019-04-25T11:54:00.367Z,43.60
2019-04-25T11:56:04.189Z,43.20
2019-04-25T11:58:08.094Z,43.50
2019-04-25T12:00:21.884Z,43.70
2019-04-25T12:02:19.238Z,42.90
2019-04-25T12:04:24.197Z,42.90
2019-04-25T12:06:28.891Z,43.30
2019-04-25T12:08:33.551Z,42.10
2019-04-25T12:10:39.386Z,42.10
2019-04-25T12:12:46.290Z,42.50
2019-04-25T12:14:49.526Z,44.00
2019-04-25T12:16:56.129Z,43.80
2019-04-25T12:18:58.978Z,43.80
2019-04-25T12:21:04.153Z,43.80
2019-04-25T12:23:10.506Z,43.90
2019-04-25T12:25:15.084Z,44.00
2019-04-25T12:27:19.222Z,43.70
2019-04-25T12:29:24.396Z,43.90
2019-04-25T12:31:28.535Z,44.10
2019-04-25T12:33:32.330Z,44.60
2019-04-25T12:35:35.981Z,43.30
2019-04-25T12:37:39.701Z,43.60
2019-04-25T12:39:43.778Z,43.00
2019-04-25T12:41:49.072Z,43.40
2019-04-25T12:44:12.822Z,44.20
2019-04-25T12:46:21.071Z,43.90
2019-04-25T12:48:27.109Z,44.20
2019-04-25T12:50:30.580Z,44.30
2019-04-25T12:52:34.651Z,43.90
2019-04-25T12:54:38.691Z,42.30
2019-04-25T12:56:43.299Z,41.80
2019-04-25T12:58:48.106Z,41.80
2019-04-25T13:00:55.198Z,41.70
2019-04-25T13:02:57.276Z,41.80
2019-04-25T13:05:01.527Z,41.50
2019-04-25T13:07:06.391Z,41.40
2019-04-25T13:09:12.138Z,41.20
2019-04-25T13:11:15.865Z,40.90
2019-04-25T13:13:20.086Z,41.30
2019-04-25T13:15:25.793Z,41.70
2019-04-25T13:17:29.330Z,41.40
2019-04-25T13:19:34.196Z,41.90
2019-04-25T13:21:37.893Z,41.30
2019-04-25T13:23:41.613Z,41.40
2019-04-25T13:25:45.505Z,41.60
2019-04-25T13:27:57.589Z,41.70
2019-04-25T13:30:20.589Z,41.50
2019-04-25T13:32:35.126Z,41.10
2019-04-25T13:34:40.429Z,41.10
2019-04-25T13:36:44.373Z,41.50
2019-04-25T13:38:47.962Z,41.00
2019-04-25T13:40:51.687Z,40.20
2019-04-25T13:42:56.441Z,39.70
2019-04-25T13:45:00.718Z,39.20
2019-04-25T13:47:06.161Z,39.60
2019-04-25T13:49:10.293Z,40.00
2019-04-25T13:51:14.251Z,40.20
2019-04-25T13:53:17.917Z,40.70
2019-04-25T13:55:23.694Z,41.00
2019-04-25T13:57:28.277Z,40.80
2019-04-25T13:59:32.636Z,40.90
2019-04-25T14:01:36.688Z,40.90
2019-04-25T14:03:44.394Z,41.30
2019-04-25T14:05:51.594Z,41.60
2019-04-25T14:07:55.599Z,41.80
2019-04-25T14:09:59.273Z,42.40
2019-04-25T14:12:04.016Z,41.40
2019-04-25T14:14:08.003Z,40.90
2019-04-25T14:16:25.358Z,40.30
2019-04-25T14:18:32.651Z,40.80
2019-04-25T14:20:41.391Z,40.70
2019-04-25T14:22:45.493Z,40.40
2019-04-25T14:24:49.225Z,40.90
2019-04-25T14:26:55.933Z,41.40
2019-04-25T14:29:00.561Z,41.10
2019-04-25T14:31:04.909Z,41.60
2019-04-25T14:33:09.023Z,42.00
2019-04-25T14:35:14.349Z,42.30
2019-04-25T14:37:18.243Z,42.80
2019-04-25T14:39:23.704Z,42.70
2019-04-25T14:41:28.130Z,42.40
2019-04-25T14:43:32.333Z,42.80
2019-04-25T14:45:44.387Z,42.50
2019-04-25T14:47:42.238Z,42.30
2019-04-25T14:49:46.298Z,41.70
2019-04-25T14:51:49.973Z,41.70
2019-04-25T14:53:54.039Z,41.90
2019-04-25T14:56:04.910Z,42.20
2019-04-25T14:58:10.518Z,42.30
2019-04-25T15:00:35.322Z,42.00
2019-04-25T15:02:39.070Z,42.10
2019-04-25T15:04:42.930Z,42.40
2019-04-25T15:06:46.676Z,42.50
2019-04-25T15:08:50.535Z,42.00
2019-04-25T15:10:54.565Z,42.10
2019-04-25T15:12:58.619Z,42.30
2019-04-25T15:15:02.405Z,42.50
2019-04-25T15:17:06.401Z,42.80
2019-04-25T15:19:10.158Z,42.90
2019-04-25T15:21:13.813Z,42.80
2019-04-25T15:23:17.962Z,43.00
2019-04-25T15:25:21.621Z,43.20
2019-04-25T15:27:25.289Z,42.70
2019-04-25T15:29:29.015Z,42.60
2019-04-25T15:31:33.752Z,42.40
2019-04-25T15:33:37.942Z,42.60
2019-04-25T15:35:46.377Z,42.90
2019-04-25T15:37:55.227Z,43.40
2019-04-25T15:40:00.526Z,44.00
2019-04-25T15:42:22.540Z,44.40
2019-04-25T15:44:56.100Z,44.60
2019-04-25T15:47:01.883Z,44.40
2019-04-25T15:49:06.774Z,44.40
2019-04-25T15:51:10.866Z,44.40
2019-04-25T15:53:14.867Z,44.90
2019-04-25T15:55:19.338Z,45.30
2019-04-25T15:57:23.442Z,45.30
2019-04-25T15:59:27.469Z,44.90
2019-04-25T16:01:32.415Z,45.10
2019-04-25T16:03:36.169Z,45.20
2019-04-25T16:05:40.346Z,46.10
2019-04-25T16:07:44.960Z,45.70
2019-04-25T16:09:48.990Z,45.80
2019-04-25T16:11:52.713Z,45.80
2019-04-25T16:13:58.311Z,45.50
2019-04-25T16:16:01.919Z,45.30
2019-04-25T16:18:06.761Z,45.50
2019-04-25T16:20:10.973Z,45.50
2019-04-25T16:22:15.563Z,45.80
2019-04-25T16:24:19.215Z,46.20
2019-04-25T16:26:23.207Z,46.50
2019-04-25T16:28:27.632Z,46.50
2019-04-25T16:30:34.454Z,46.60
2019-04-25T16:32:38.607Z,46.90
2019-04-25T16:34:42.882Z,47.20
2019-04-25T16:36:46.796Z,47.30
2019-04-25T16:38:50.826Z,47.30
2019-04-25T16:40:54.573Z,47.50
2019-04-25T16:42:59.902Z,47.50
2019-04-25T16:45:05.120Z,47.80
2019-04-25T16:47:08.925Z,48.20
2019-04-25T16:49:12.675Z,48.50
2019-04-25T16:51:17.213Z,48.70
2019-04-25T16:53:21.051Z,49.20
2019-04-25T16:55:25.035Z,49.30
2019-04-25T16:57:29.042Z,49.60
2019-04-25T16:59:33.569Z,50.00
2019-04-25T17:01:38.609Z,50.20
2019-04-25T17:03:43.185Z,50.50
2019-04-25T17:05:47.677Z,50.80
2019-04-25T17:07:51.675Z,51.30
2019-04-25T17:09:55.711Z,51.40
2019-04-25T17:11:59.402Z,51.70
2019-04-25T17:14:05.090Z,52.00
2019-04-25T17:16:11.434Z,52.20
2019-04-25T17:18:16.876Z,52.60
2019-04-25T17:20:22.556Z,53.10
2019-04-25T17:22:26.377Z,53.40
2019-04-25T17:24:31.116Z,53.60
2019-04-25T17:26:35.049Z,53.90
2019-04-25T17:28:41.198Z,54.20
2019-04-25T17:30:46.987Z,54.50
2019-04-25T17:32:56.073Z,54.60
2019-04-25T17:35:01.550Z,55.00
2019-04-25T17:37:07.230Z,55.60
2019-04-25T17:39:29.123Z,55.90
2019-04-25T17:41:33.144Z,56.60
2019-04-25T17:43:37.012Z,58.20
2019-04-25T17:45:41.718Z,58.50
2019-04-25T17:47:54.375Z,58.80
2019-04-25T17:49:52.429Z,59.50
2019-04-25T17:51:55.990Z,59.70
2019-04-25T17:53:59.947Z,60.10
2019-04-25T17:56:03.673Z,61.20
2019-04-25T17:58:07.566Z,61.50
2019-04-25T18:00:29.001Z,62.50
2019-04-25T18:02:33.638Z,63.10
2019-04-25T18:04:38.302Z,63.70
2019-04-25T18:06:43.027Z,64.00
2019-04-25T18:08:47.714Z,64.60
2019-04-25T18:10:52.286Z,65.20
2019-04-25T18:12:56.014Z,67.00
2019-04-25T18:15:01.317Z,67.80
2019-04-25T18:17:05.520Z,68.50
2019-04-25T18:19:14.528Z,69.20
2019-04-25T18:21:19.239Z,70.60
2019-04-25T18:23:35.148Z,71.50
2019-04-25T18:25:57.631Z,72.00
2019-04-25T18:28:09.745Z,73.00
2019-04-25T18:30:14.593Z,73.40
2019-04-25T18:32:18.330Z,74.00
2019-04-25T18:34:23.838Z,74.90
2019-04-25T18:36:32.856Z,75.50
2019-04-25T18:38:47.502Z,76.40
2019-04-25T18:40:59.150Z,77.10
2019-04-25T18:43:04.525Z,77.80
2019-04-25T18:45:10.572Z,78.20
2019-04-25T18:47:14.229Z,78.80
2019-04-25T18:49:18.909Z,79.20
2019-04-25T18:51:23.062Z,79.60
2019-04-25T18:53:45.650Z,80.20
2019-04-25T18:55:54.649Z,80.50
2019-04-25T18:58:00.019Z,81.00
2019-04-25T19:00:16.469Z,81.70
2019-04-25T19:02:22.150Z,82.20
2019-04-25T19:04:29.958Z,82.80
2019-04-25T19:06:34.014Z,83.10
2019-04-25T19:08:38.558Z,83.70
2019-04-25T19:10:43.691Z,83.90
2019-04-25T19:12:47.430Z,84.30
2019-04-25T19:14:51.750Z,84.60
2019-04-25T19:16:55.878Z,84.90
2019-04-25T19:18:59.798Z,85.50
2019-04-25T19:21:04.645Z,85.90
2019-04-25T19:23:08.735Z,86.10
2019-04-25T19:25:13.246Z,86.40
2019-04-25T19:27:23.997Z,86.80
2019-04-25T19:29:24.292Z,87.10
2019-04-25T19:31:28.489Z,87.60
2019-04-25T19:33:35.893Z,88.00
2019-04-25T19:35:39.362Z,88.40
2019-04-25T19:37:43.908Z,88.60
2019-04-25T19:39:49.421Z,88.90
2019-04-25T19:42:11.165Z,89.20
2019-04-25T19:44:16.540Z,89.80
2019-04-25T19:46:22.154Z,90.10
2019-04-25T19:48:26.192Z,90.20
2019-04-25T19:50:30.327Z,90.30
2019-04-25T19:52:34.082Z,90.80
2019-04-25T19:54:38.239Z,91.00
2019-04-25T19:56:42.668Z,91.20
2019-04-25T19:58:47.403Z,91.30
2019-04-25T20:00:51.615Z,91.50
2019-04-25T20:02:59.654Z,91.60
2019-04-25T20:05:10.984Z,91.80
2019-04-25T20:07:22.426Z,92.00
2019-04-25T20:09:44.862Z,92.20
2019-04-25T20:11:51.437Z,92.20
2019-04-25T20:13:55.305Z,92.70
2019-04-25T20:15:59.029Z,92.70
2019-04-25T20:18:02.751Z,92.90
2019-04-25T20:20:08.025Z,93.10
2019-04-25T20:22:12.053Z,93.20
2019-04-25T20:24:15.801Z,93.30
2019-04-25T20:26:19.954Z,93.40
2019-04-25T20:28:23.750Z,93.60
2019-04-25T20:30:29.264Z,93.60
2019-04-25T20:32:32.997Z,93.70
2019-04-25T20:34:36.678Z,93.90
2019-04-25T20:36:40.713Z,93.70
2019-04-25T20:38:47.134Z,93.70
2019-04-25T20:40:51.711Z,93.70
2019-04-25T20:42:56.235Z,93.80
2019-04-25T20:45:00.131Z,93.80
2019-04-25T20:47:03.861Z,93.90
2019-04-25T20:49:07.581Z,94.00
2019-04-25T20:51:11.582Z,94.10
2019-04-25T20:53:15.297Z,94.20
2019-04-25T20:55:19.191Z,94.30
2019-04-25T20:57:23.778Z,94.30
2019-04-25T20:59:27.518Z,94.40
2019-04-25T21:01:31.650Z,94.70
2019-04-25T21:03:35.622Z,94.40
2019-04-25T21:05:40.064Z,94.50
2019-04-25T21:07:43.794Z,94.50
2019-04-25T21:09:47.721Z,94.50
2019-04-25T21:11:51.516Z,94.50
2019-04-25T21:14:02.829Z,94.50
2019-04-25T21:16:24.303Z,94.60
2019-04-25T21:18:29.994Z,94.60
2019-04-25T21:24:07.062Z,94.60
2019-04-25T21:26:11.105Z,95.00
2019-04-25T21:28:15.075Z,95.30
2019-04-25T21:33:53.752Z,95.50
2019-04-25T21:35:58.066Z,95.50
2019-04-25T21:38:02.483Z,95.60
2019-04-25T21:43:54.389Z,95.90
2019-04-25T21:45:58.464Z,96.00
2019-04-25T21:48:03.028Z,96.20
2019-04-25T21:53:54.481Z,96.30
2019-04-25T21:55:59.660Z,96.50
2019-04-25T21:58:04.217Z,96.60
2019-04-25T22:03:55.691Z,96.70
2019-04-25T22:06:00.736Z,96.90
2019-04-25T22:08:04.905Z,97.00
2019-04-25T22:13:53.506Z,97.30
2019-04-25T22:15:57.602Z,97.40
2019-04-25T22:18:02.264Z,97.60
2019-04-25T22:20:08.044Z,97.80
2019-04-25T22:22:11.661Z,97.80
2019-04-25T22:24:16.714Z,97.90
2019-04-25T22:26:21.646Z,98.00
2019-04-25T22:28:25.605Z,98.00
2019-04-25T22:30:29.966Z,98.20
2019-04-25T22:32:44.362Z,98.30
2019-04-25T22:35:05.730Z,98.40
2019-04-25T22:37:09.562Z,98.50
2019-04-25T22:39:14.672Z,98.50
2019-04-25T22:41:18.620Z,98.60
2019-04-25T22:43:22.553Z,98.70
2019-04-25T22:45:27.001Z,98.80
2019-04-25T22:47:30.862Z,98.80
2019-04-25T22:49:34.641Z,98.90
2019-04-25T22:51:38.506Z,98.60
2019-04-25T22:53:42.638Z,98.90
2019-04-25T22:55:46.295Z,98.90
2019-04-25T22:57:50.093Z,99.10
2019-04-25T22:59:53.789Z,99.20
2019-04-25T23:01:59.158Z,99.30
2019-04-25T23:04:08.084Z,99.30
2019-04-25T23:06:12.340Z,99.30
2019-04-25T23:08:16.038Z,99.40
2019-04-25T23:10:19.761Z,99.80
2019-04-25T23:12:23.421Z,99.50
2019-04-25T23:14:27.083Z,99.70
2019-04-25T23:16:31.203Z,99.70
2019-04-25T23:18:34.922Z,99.70
2019-04-25T23:20:38.905Z,99.70
2019-04-25T23:22:43.244Z,99.70
2019-04-25T23:24:48.821Z,99.80
2019-04-25T23:27:10.032Z,99.80
2019-04-25T23:29:14.579Z,99.70
2019-04-25T23:31:20.341Z,99.80
2019-04-25T23:33:24.797Z,99.90
2019-04-25T23:35:29.821Z,99.90
2019-04-25T23:37:34.176Z,99.90
2019-04-25T23:39:38.063Z,99.90
2019-04-25T23:41:41.861Z,99.90
2019-04-25T23:43:45.592Z,99.90
2019-04-25T23:45:49.382Z,99.90
2019-04-25T23:47:53.408Z,99.90
2019-04-25T23:49:57.482Z,99.90
2019-04-25T23:52:01.189Z,99.90
2019-04-25T23:54:07.464Z,99.90
2019-04-25T23:56:11.638Z,99.90
2019-04-25T23:58:15.643Z,99.90
